Flight Track Log - Related Links

Times and Time Zones

All times are in EST time to prevent confusion due to time zone crossing. See the SWA3588 flight status page for this flight to view local times or setup timezone preferences in your user account.

Time Position Orientation Groundspeed Altitude Reporting Facility
EST Latitude Longitude Course Direction KTS MPH feet Rate Location/Type
Mon 10:02:55 AM 29.5511 -98.4989 314° West 172 198 1,900  Level Houston Center
Mon 10:03:07 AM 29.5589 -98.5081 314° West 179 206 2,200 1,935 Climbing Houston Center
Mon 10:03:26 AM 29.5683 -98.5256 302° West 198 228 2,900 2,516 Climbing Houston Center
Mon 10:04:09 AM 29.5975 -98.5675 309° West 229 264 4,800 2,400 Climbing Houston Center
Mon 10:05:11 AM 29.6386 -98.5253 42° Northeast 245 282 7,100 2,274 Climbing Houston Center
Mon 10:06:13 AM 29.6425 -98.4331 87° East 289 333 9,500 2,032 Climbing Houston Center
Mon 10:07:15 AM 29.6439 -98.3178 89° East 342 394 11,300 2,177 Climbing Houston Center
Mon 10:08:17 AM 29.6475 -98.1983 88° East 369 425 14,000 2,468 Climbing Houston Center
Mon 10:09:19 AM 29.6494 -98.0642 89° East 389 448 16,400 2,032 Climbing Houston Center
Mon 10:10:21 AM 29.6514 -97.9353 89° East 401 461 18,200 1,839 Climbing Houston Center
Mon 10:11:23 AM 29.6550 -97.8017 88° East 418 481 20,200 1,935 Climbing Houston Center
Mon 10:12:25 AM 29.6414 -97.6669 97° East 424 488 22,200 1,694 Climbing Houston Center
Mon 10:13:27 AM 29.6125 -97.5328 104° East 429 494 23,700 1,548 Climbing Houston Center
Mon 10:14:29 AM 29.5853 -97.3944 103° East 438 504 25,400 1,403 Climbing Houston Center
Mon 10:15:31 AM 29.5569 -97.2533 103° East 448 516 26,600 -145 Climbing Houston Center
Mon 10:16:33 AM 29.5217 -97.0781 103° East 465 535 25,100 -1,258 Descending Houston Center
Mon 10:17:35 AM 29.4917 -96.9361 104° East 455 524 24,000 -677 Descending Houston Center
Mon 10:18:37 AM 29.4650 -96.7964 102° East 440 506 23,700 -1,161 Descending Houston Center
Mon 10:19:39 AM 29.4350 -96.6567 104° East 442 509 21,600 -2,077 Descending Houston Center
Mon 10:19:55 AM 29.4267 -96.6233 106° East 446 513 21,000 -2,129 Descending Houston Center
Mon 10:20:41 AM 29.4058 -96.5194 103° East 441 507 19,400 -1,944 Descending Houston Center
Mon 10:21:43 AM 29.3786 -96.3900 104° East 422 486 17,500 -2,124 Descending Houston Center
Mon 10:22:34 AM 29.3531 -96.2719 104° East 409 471 15,400 -2,190 Descending Houston Center
Mon 10:22:46 AM 29.3517 -96.2628 100° East 412 474 15,200 -2,361 Descending Houston Center
Mon 10:23:35 AM 29.3278 -96.1478 103° East 397 457 13,000 -2,226 Descending Houston Center
Mon 10:23:48 AM 29.3269 -96.1394 97° East 401 461 12,900 -968 Descending Houston Center
Mon 10:24:37 AM 29.3172 -96.0247 96° East 366 421 12,000 -871 Descending Houston Center
Mon 10:24:50 AM 29.3269 -96.0058 59° Northeast 362 417 12,000 -197 Level Houston Center
Mon 10:25:38 AM 29.3067 -95.9275 107° East 313 360 11,800 -290 Descending Houston Center
Mon 10:25:52 AM 29.3050 -95.9186 102° East 326 375 11,700 -1,164 Descending Houston Center
Mon 10:26:45 AM 29.2722 -95.8239 112° Southeast 305 351 10,500 -1,161 Descending Houston Center
Mon 10:26:54 AM 29.2736 -95.8264 302° West 314 361 10,500 -1,964 Level Houston Center
Mon 10:27:40 AM 29.2625 -95.7386 98° East 315 362 8,700 -2,032 Descending Houston Center
Mon 10:27:56 AM 29.2775 -95.7217 45° Northeast 314 361 8,400 -532 Descending Houston Center
Mon 10:28:59 AM 29.3300 -95.6550 48° Northeast 289 333 8,000 -750 Descending Houston Center
Mon 10:29:48 AM 29.3719 -95.6014 48° Northeast 262 302 7,000 -1,065 Descending Houston Center
Mon 10:30:01 AM 29.3783 -95.5925 50° Northeast 270 311 6,900 -857 Descending Houston Center
Mon 10:30:44 AM 29.4133 -95.5461 49° Northeast 245 282 6,200 -871 Descending Houston Center
Mon 10:31:03 AM 29.4228 -95.5331 50° Northeast 254 292 6,000 -873 Descending Houston Center
Mon 10:31:39 AM 29.4525 -95.4936 49° Northeast 239 275 5,400 -871 Descending Houston Center
Mon 10:32:05 AM 29.4653 -95.4767 49° Northeast 240 276 5,100 -1,397 Descending Houston Center
Mon 10:32:52 AM 29.5058 -95.4319 44° Northeast 219 252 3,700 -1,548 Descending Houston Center
Mon 10:33:07 AM 29.5175 -95.4186 45° Northeast 222 255 3,500 -885 Descending Houston Center
Mon 10:33:53 AM 29.5419 -95.3917 44° Northeast 167 192 2,800 -968 Descending Houston Center
Mon 10:34:09 AM 29.5519 -95.3808 43° Northeast 192 221 2,500 -764 Descending Houston Center
Mon 10:34:48 AM 29.5708 -95.3617 41° Northeast 143 165 2,100 -774 Descending Houston Center
Mon 10:35:11 AM 29.5817 -95.3483 47° Northeast 168 193 1,700 -984 Descending Houston Center
Mon 10:35:49 AM 29.6031 -95.3242 44° Northeast 154 177 1,100 -762 Descending Houston Center
Mon 10:36:14 AM 29.6117 -95.3153 42° Northeast 156 180 900 -655 Descending Houston Center
Mon 10:36:44 AM 29.6258 -95.3000 43° Northeast 128 147 500 -677 Descending Houston Center
Mon 10:37:16 AM 29.6375 -95.2864 45° Northeast 141 162 200 -563 Descending Houston Center
Mon 10:39:00 AM 29.6454 -95.2789 115° Southeast  Level Estimated

Login

Don't have an account? Register now (free) for customized features, flight alerts, and more!